createdAt,value
2023-02-22T00:01:19.166Z,100263.66
2023-02-22T00:04:21.287Z,100256.31
2023-02-22T00:07:23.821Z,100258.00
2023-02-22T00:10:27.338Z,100254.81
2023-02-22T00:13:29.628Z,100255.41
2023-02-22T00:16:31.721Z,100247.25
2023-02-22T00:19:33.985Z,100253.75
2023-02-22T00:22:35.733Z,100256.97
2023-02-22T00:25:38.738Z,100246.16
2023-02-22T00:28:42.329Z,100251.75
2023-02-22T00:31:44.172Z,100253.97
2023-02-22T00:34:47.795Z,100245.47
2023-02-22T00:37:50.430Z,100259.06
2023-02-22T00:40:53.447Z,100249.63
2023-02-22T00:43:55.062Z,100249.97
2023-02-22T00:46:56.712Z,100249.28
2023-02-22T00:49:58.456Z,100242.03
2023-02-22T00:53:01.921Z,100244.28
2023-02-22T00:56:05.848Z,100235.16
2023-02-22T00:59:07.660Z,100234.22
2023-02-22T01:02:10.535Z,100227.22
2023-02-22T01:05:14.643Z,100223.72
2023-02-22T01:08:17.736Z,100233.75
2023-02-22T01:11:22.243Z,100238.59
2023-02-22T01:14:26.645Z,100237.50
2023-02-22T01:17:28.458Z,100231.00
2023-02-22T01:20:31.472Z,100228.41
2023-02-22T01:23:33.450Z,100226.72
2023-02-22T01:26:37.846Z,100224.13
2023-02-22T01:29:39.670Z,100220.22
2023-02-22T01:32:42.346Z,100221.91
2023-02-22T01:35:46.133Z,100221.53
2023-02-22T01:38:47.770Z,100219.88
2023-02-22T01:41:53.538Z,100211.50
2023-02-22T01:45:34.082Z,100212.25
2023-02-22T01:48:41.440Z,100213.59
2023-02-22T01:51:46.581Z,100209.69
2023-02-22T01:54:51.457Z,100210.25
2023-02-22T01:57:54.988Z,100207.28
2023-02-22T02:01:48.043Z,100203.38
2023-02-22T02:04:51.643Z,100203.00
2023-02-22T02:07:54.177Z,100201.72
2023-02-22T02:10:58.006Z,100197.06
2023-02-22T02:14:01.290Z,100197.81
2023-02-22T02:17:07.111Z,100194.13
2023-02-22T02:20:17.210Z,100188.91
2023-02-22T02:23:45.345Z,100180.38
2023-02-22T02:27:12.330Z,100176.31
2023-02-22T02:30:41.246Z,100164.81
2023-02-22T02:33:53.096Z,100164.09
2023-02-22T02:37:02.983Z,100162.22
2023-02-22T02:40:12.086Z,100164.06
2023-02-22T02:43:21.464Z,100155.91
2023-02-22T02:46:27.383Z,100156.28
2023-02-22T02:49:36.373Z,100151.06
2023-02-22T02:52:44.129Z,100149.22
2023-02-22T02:55:45.816Z,100141.44
2023-02-22T02:58:49.854Z,100148.13
2023-02-22T03:02:03.145Z,100153.13
2023-02-22T03:05:26.241Z,100149.03
2023-02-22T03:08:35.117Z,100146.66
2023-02-22T03:11:48.519Z,100150.94
2023-02-22T03:15:02.277Z,100149.09
2023-02-22T03:18:08.849Z,100140.19
2023-02-22T03:21:21.672Z,100155.19
2023-02-22T03:24:27.968Z,100149.09
2023-02-22T03:27:37.216Z,100153.72
2023-02-22T03:30:49.085Z,100159.63
2023-02-22T03:33:54.363Z,100156.09
2023-02-22T03:37:05.652Z,100154.41
2023-02-22T03:40:14.652Z,100159.59
2023-02-22T03:43:25.044Z,100151.44
2023-02-22T03:46:31.613Z,100145.53
2023-02-22T03:49:37.515Z,100150.13
2023-02-22T03:52:44.258Z,100153.81
2023-02-22T03:55:55.526Z,100149.59
2023-02-22T03:58:57.792Z,100150.31
2023-02-22T04:01:59.801Z,100144.03
2023-02-22T04:05:02.124Z,100141.81
2023-02-22T04:08:06.433Z,100141.03
2023-02-22T04:11:08.370Z,100140.88
2023-02-22T04:14:10.282Z,100143.63
2023-02-22T04:17:12.121Z,100131.56
2023-02-22T04:20:19.888Z,100133.25
2023-02-22T04:23:33.844Z,100131.56
2023-02-22T04:26:36.769Z,100133.44
2023-02-22T04:29:43.428Z,100127.53
2023-02-22T04:32:46.009Z,100126.03
2023-02-22T04:35:49.618Z,100123.63
2023-02-22T04:38:53.481Z,100120.09
2023-02-22T04:41:58.978Z,100123.59
2023-02-22T04:45:00.949Z,100124.75
2023-02-22T04:48:02.998Z,100125.84
2023-02-22T04:51:06.121Z,100122.88
2023-02-22T04:54:09.761Z,100120.66
2023-02-22T04:57:17.565Z,100129.53
2023-02-22T05:00:22.827Z,100117.69
2023-02-22T05:03:28.371Z,100123.25
2023-02-22T05:06:33.296Z,100126.38
2023-02-22T05:09:36.368Z,100122.53
2023-02-22T05:12:38.245Z,100121.75
2023-02-22T05:15:39.990Z,100134.00
2023-02-22T05:18:42.124Z,100125.84
2023-02-22T05:21:46.457Z,100127.88
2023-02-22T05:24:58.848Z,100122.84
2023-02-22T05:28:03.340Z,100123.38
2023-02-22T05:31:05.679Z,100124.88
2023-02-22T05:34:09.890Z,100123.19
2023-02-22T05:37:11.641Z,100124.81
2023-02-22T05:40:17.389Z,100129.09
2023-02-22T05:43:20.264Z,100127.09
2023-02-22T05:46:22.010Z,100124.69
2023-02-22T05:49:23.937Z,100121.03
2023-02-22T05:52:25.996Z,100118.81
2023-02-22T05:55:29.093Z,100113.63
2023-02-22T05:58:30.858Z,100109.19
2023-02-22T06:01:32.587Z,100105.88
2023-02-22T06:04:34.400Z,100102.72
2023-02-22T06:07:36.253Z,100107.72
2023-02-22T06:10:39.460Z,100099.19
2023-02-22T06:13:41.380Z,100106.97
2023-02-22T06:16:43.223Z,100103.09
2023-02-22T06:19:45.677Z,100113.69
2023-02-22T06:22:47.768Z,100115.72
2023-02-22T06:25:53.426Z,100121.81
2023-02-22T06:29:02.027Z,100127.38
2023-02-22T06:32:05.837Z,100131.25
2023-02-22T06:35:09.940Z,100129.44
2023-02-22T06:38:11.688Z,100135.72
2023-02-22T06:41:15.856Z,100134.78
2023-02-22T06:44:17.917Z,100139.44
2023-02-22T06:47:20.559Z,100137.56
2023-02-22T06:50:25.134Z,100135.72
2023-02-22T06:53:26.891Z,100140.72
2023-02-22T06:56:30.243Z,100133.66
2023-02-22T06:59:31.967Z,100144.81
2023-02-22T07:02:33.644Z,100143.66
2023-02-22T07:05:36.027Z,100145.34
2023-02-22T07:08:39.258Z,100155.19
2023-02-22T07:11:43.224Z,100147.75
2023-02-22T07:14:44.925Z,100156.06
2023-02-22T07:17:47.004Z,100155.88
2023-02-22T07:20:52.101Z,100155.13
2023-02-22T07:23:56.008Z,100153.63
2023-02-22T07:27:01.097Z,100153.41
2023-02-22T07:30:15.982Z,100153.38
2023-02-22T07:33:18.359Z,100156.84
2023-02-22T07:36:20.166Z,100156.81
2023-02-22T07:39:21.935Z,100153.81
2023-02-22T07:42:25.034Z,100164.69
2023-02-22T07:45:28.792Z,100162.81
2023-02-22T07:48:31.738Z,100166.88
2023-02-22T07:51:33.547Z,100160.94
2023-02-22T07:54:38.041Z,100160.03
2023-02-22T07:57:43.338Z,100165.63
2023-02-22T08:00:47.355Z,100155.91
2023-02-22T08:03:57.049Z,100163.66
2023-02-22T08:06:58.852Z,100166.94
2023-02-22T08:10:00.885Z,100156.00
2023-02-22T08:13:08.348Z,100154.66
2023-02-22T08:16:10.178Z,100153.78
2023-02-22T08:19:11.944Z,100146.69
2023-02-22T08:22:13.615Z,100144.91
2023-02-22T08:25:16.708Z,100140.16
2023-02-22T08:28:23.232Z,100133.25
2023-02-22T08:31:25.341Z,100144.44
2023-02-22T08:34:27.620Z,100136.97
2023-02-22T08:37:39.303Z,100139.25
2023-02-22T08:40:41.356Z,100141.53
2023-02-22T08:43:44.465Z,100145.72
2023-02-22T08:46:48.864Z,100144.88
2023-02-22T08:49:50.770Z,100141.63
2023-02-22T08:52:53.575Z,100145.38
2023-02-22T08:55:55.442Z,100141.75
2023-02-22T08:58:58.782Z,100139.97
2023-02-22T09:02:02.891Z,100145.31
2023-02-22T09:05:05.777Z,100148.41
2023-02-22T09:08:10.224Z,100143.16
2023-02-22T09:11:12.362Z,100144.56
2023-02-22T09:14:16.506Z,100137.09
2023-02-22T09:17:18.451Z,100142.03
2023-02-22T09:20:21.685Z,100148.41
2023-02-22T09:23:23.941Z,100144.63
2023-02-22T09:26:29.524Z,100143.94
2023-02-22T09:29:32.765Z,100151.97
2023-02-22T09:32:36.493Z,100142.94
2023-02-22T09:35:42.398Z,100136.78
2023-02-22T09:38:44.392Z,100119.28
2023-02-22T09:41:56.310Z,100126.41
2023-02-22T09:45:06.261Z,100123.63
2023-02-22T09:48:21.264Z,100116.22
2023-02-22T09:51:27.554Z,100112.38
2023-02-22T09:54:34.316Z,100109.72
2023-02-22T09:57:41.604Z,100108.44
2023-02-22T10:00:51.498Z,100107.56
2023-02-22T10:04:01.530Z,100105.84
2023-02-22T10:07:12.329Z,100108.00
2023-02-22T10:10:17.526Z,100102.94
2023-02-22T10:13:28.946Z,100106.16
2023-02-22T10:16:40.659Z,100101.22
2023-02-22T10:19:54.751Z,100104.66
2023-02-22T10:23:05.332Z,100098.31
2023-02-22T10:26:16.430Z,100092.31
2023-02-22T10:29:24.635Z,100087.63
2023-02-22T10:32:35.450Z,100081.56
2023-02-22T10:35:41.135Z,100086.88
2023-02-22T10:38:53.223Z,100071.47
2023-02-22T10:42:05.767Z,100092.03
2023-02-22T10:45:20.251Z,100083.22
2023-02-22T10:48:26.367Z,100079.69
2023-02-22T10:51:31.505Z,100079.78
2023-02-22T10:54:39.626Z,100078.50
2023-02-22T10:57:44.469Z,100079.69
2023-02-22T11:00:46.748Z,100076.00
2023-02-22T11:04:00.104Z,100072.41
2023-02-22T11:07:10.776Z,100069.28
2023-02-22T11:10:12.861Z,100074.31
2023-02-22T11:13:19.194Z,100065.38
2023-02-22T11:16:28.118Z,100062.25
2023-02-22T11:19:33.247Z,100055.38
2023-02-22T11:22:41.075Z,100063.28
2023-02-22T11:25:43.386Z,100052.63
2023-02-22T11:28:55.958Z,100053.53
2023-02-22T11:31:59.277Z,100046.94
2023-02-22T11:35:20.792Z,100042.44
2023-02-22T11:38:24.529Z,100042.09
2023-02-22T11:41:28.071Z,100041.03
2023-02-22T11:48:05.406Z,100033.53
2023-02-22T11:51:17.527Z,100036.09
2023-02-22T11:54:33.298Z,100029.03
2023-02-22T11:57:50.330Z,100027.66
2023-02-22T12:00:58.896Z,100030.91
2023-02-22T12:04:42.406Z,100024.47
2023-02-22T12:07:56.485Z,100014.94
2023-02-22T12:11:06.353Z,100014.00
2023-02-22T12:14:19.183Z,100014.06
2023-02-22T12:17:43.675Z,100003.25
2023-02-22T12:20:54.960Z,99992.81
2023-02-22T12:24:04.544Z,99996.09
2023-02-22T12:27:10.197Z,99989.22
2023-02-22T12:30:18.028Z,99987.47
2023-02-22T12:33:27.036Z,99995.97
2023-02-22T12:36:36.783Z,99991.28
2023-02-22T12:39:53.573Z,99988.41
2023-02-22T12:43:00.755Z,99984.63
2023-02-22T12:46:06.974Z,99980.25
2023-02-22T12:49:17.702Z,99985.25
2023-02-22T12:52:29.162Z,99976.63
2023-02-22T12:55:39.154Z,99973.47
2023-02-22T12:58:49.393Z,99972.56
2023-02-22T13:01:55.079Z,99966.97
2023-02-22T13:04:57.291Z,99968.75
2023-02-22T13:08:17.891Z,99967.03
2023-02-22T13:11:27.993Z,99960.81
2023-02-22T13:14:40.414Z,99958.34
2023-02-22T13:18:08.435Z,99955.69
2023-02-22T13:21:16.530Z,99958.38
2023-02-22T13:24:26.094Z,99955.13
2023-02-22T13:27:37.282Z,99946.50
2023-02-22T13:30:43.163Z,99949.97
2023-02-22T13:34:01.288Z,99952.00
2023-02-22T13:37:34.242Z,99947.91
2023-02-22T13:41:18.777Z,99937.50
2023-02-22T13:44:53.510Z,99934.81
2023-02-22T13:49:54.951Z,99932.88
2023-02-22T13:52:58.840Z,99933.41
2023-02-22T13:56:01.152Z,99939.91
2023-02-22T13:59:04.972Z,99942.66
2023-02-22T14:02:08.067Z,99925.03
2023-02-22T14:05:51.971Z,99939.00
2023-02-22T14:08:53.923Z,99939.16
2023-02-22T14:11:56.973Z,99932.75
2023-02-22T14:15:32.714Z,99932.94
2023-02-22T14:18:37.545Z,99932.91
2023-02-22T14:21:56.231Z,99932.66
2023-02-22T14:24:58.754Z,99931.97
2023-02-22T14:28:02.860Z,99935.56
2023-02-22T14:31:07.717Z,99928.25
2023-02-22T14:34:11.076Z,99924.25
2023-02-22T14:37:18.442Z,99920.81
2023-02-22T14:40:25.818Z,99925.41
2023-02-22T14:43:27.714Z,99926.13
2023-02-22T14:46:34.821Z,99916.25
2023-02-22T14:49:42.809Z,99913.78
2023-02-22T14:52:49.680Z,99912.25
2023-02-22T14:55:56.711Z,99905.91
2023-02-22T14:59:13.213Z,99908.03
2023-02-22T15:02:15.696Z,99906.44
2023-02-22T15:05:20.768Z,99895.47
2023-02-22T15:08:28.362Z,99905.69
2023-02-22T15:11:34.412Z,99898.56
2023-02-22T15:14:41.679Z,99896.63
2023-02-22T15:17:46.084Z,99899.59
2023-02-22T15:20:49.240Z,99898.59
2023-02-22T15:23:55.312Z,99897.94
2023-02-22T15:27:05.915Z,99894.47
2023-02-22T15:30:17.018Z,99889.81
2023-02-22T15:33:24.690Z,99894.91
2023-02-22T15:36:31.103Z,99892.72
2023-02-22T15:39:34.610Z,99901.13
2023-02-22T15:42:43.942Z,99902.97
2023-02-22T15:45:46.283Z,99893.22
2023-02-22T15:49:07.390Z,99897.22
2023-02-22T15:52:19.700Z,99905.28
2023-02-22T15:55:26.808Z,99903.59
2023-02-22T15:58:29.962Z,99906.53
2023-02-22T16:01:37.774Z,99901.84
2023-02-22T16:04:42.160Z,99901.13
2023-02-22T16:07:48.929Z,99902.16
2023-02-22T16:10:59.827Z,99907.38
2023-02-22T16:14:04.901Z,99904.50
2023-02-22T16:17:29.607Z,99909.41
2023-02-22T16:20:36.153Z,99913.84
2023-02-22T16:23:47.294Z,99906.72
2023-02-22T16:27:15.918Z,99909.09
2023-02-22T16:30:26.637Z,99904.63
2023-02-22T16:33:33.895Z,99908.78
2023-02-22T16:36:41.215Z,99914.50
2023-02-22T16:39:46.070Z,99913.22
2023-02-22T16:42:52.280Z,99908.75
2023-02-22T16:45:54.175Z,99915.09
2023-02-22T16:48:56.097Z,99916.31
2023-02-22T16:52:01.411Z,99915.16
2023-02-22T16:55:03.359Z,99915.81
2023-02-22T16:58:09.792Z,99913.84
2023-02-22T17:01:13.195Z,99914.13
2023-02-22T17:04:17.994Z,99918.59
2023-02-22T17:07:24.035Z,99925.72
2023-02-22T17:10:26.794Z,99919.28
2023-02-22T17:13:30.280Z,99931.09
2023-02-22T17:16:32.172Z,99924.03
2023-02-22T17:19:33.917Z,99932.69
2023-02-22T17:22:35.650Z,99929.91
2023-02-22T17:25:42.596Z,99935.06
2023-02-22T17:28:48.332Z,99927.44
2023-02-22T17:31:52.319Z,99938.09
2023-02-22T17:34:54.148Z,99940.44
2023-02-22T17:37:57.337Z,99939.69
2023-02-22T17:41:01.241Z,99942.28
2023-02-22T17:44:04.694Z,99948.84
2023-02-22T17:47:06.552Z,99953.59
2023-02-22T17:50:09.516Z,99952.66
2023-02-22T17:53:11.975Z,99952.66
2023-02-22T17:56:18.544Z,99956.22
2023-02-22T17:59:21.840Z,99958.84
2023-02-22T18:02:23.904Z,99951.50
2023-02-22T18:05:26.675Z,99961.75
2023-02-22T18:08:32.041Z,99956.06
2023-02-22T18:11:33.921Z,99962.06
2023-02-22T18:14:37.793Z,99966.94
2023-02-22T18:17:39.756Z,99957.88
2023-02-22T18:20:43.765Z,99961.50
2023-02-22T18:23:46.051Z,99959.63
2023-02-22T18:26:48.016Z,99960.03
2023-02-22T18:29:51.659Z,99960.72
2023-02-22T18:32:53.618Z,99959.78
2023-02-22T18:35:55.472Z,99968.19
2023-02-22T18:38:58.009Z,99970.06
2023-02-22T18:41:59.982Z,99964.00
2023-02-22T18:45:05.366Z,99956.56
2023-02-22T18:48:07.276Z,99961.97
2023-02-22T18:51:11.285Z,99969.09
2023-02-22T18:54:13.280Z,99966.84
2023-02-22T18:57:15.650Z,99968.88
2023-02-22T19:00:24.841Z,99969.00
2023-02-22T19:03:27.064Z,99964.16
2023-02-22T19:06:29.132Z,99965.72
2023-02-22T19:09:30.932Z,99960.72
2023-02-22T19:12:33.758Z,99972.53
2023-02-22T19:15:37.290Z,99966.78
2023-02-22T19:18:39.302Z,99969.38
2023-02-22T19:21:41.163Z,99964.28
2023-02-22T19:24:45.970Z,99959.03
2023-02-22T19:27:48.086Z,99956.28
2023-02-22T19:30:51.551Z,99945.25
2023-02-22T19:33:53.626Z,99951.38
2023-02-22T19:36:56.041Z,99952.50
2023-02-22T19:39:57.696Z,99955.44
2023-02-22T19:42:59.597Z,99963.06
2023-02-22T19:46:05.678Z,99965.31
2023-02-22T19:49:07.843Z,99960.78
2023-02-22T19:52:09.763Z,99954.91
2023-02-22T19:55:14.392Z,99956.53
2023-02-22T19:58:16.300Z,99961.00
2023-02-22T20:01:24.212Z,99962.88
2023-02-22T20:04:30.352Z,99964.19
2023-02-22T20:07:32.293Z,99960.28
2023-02-22T20:10:37.508Z,99965.91
2023-02-22T20:13:40.863Z,99965.63
2023-02-22T20:16:44.100Z,99967.03
2023-02-22T20:19:54.210Z,99965.41
2023-02-22T20:22:55.905Z,99974.41
2023-02-22T20:25:58.074Z,99965.25
2023-02-22T20:29:00.895Z,99980.34
2023-02-22T20:32:05.579Z,99978.75
2023-02-22T20:35:07.841Z,99979.09
2023-02-22T20:38:11.558Z,99981.78
2023-02-22T20:41:15.093Z,99985.03
2023-02-22T20:44:18.651Z,99985.38
2023-02-22T20:47:21.723Z,99984.63
2023-02-22T20:50:23.436Z,99976.97
2023-02-22T20:53:25.350Z,99987.13
2023-02-22T20:56:29.282Z,99989.56
2023-02-22T20:59:31.023Z,99991.78
2023-02-22T21:02:34.750Z,99997.34
2023-02-22T21:05:41.703Z,99990.50
2023-02-22T21:08:44.434Z,99987.75
2023-02-22T21:11:47.323Z,99981.28
2023-02-22T21:14:49.024Z,99977.94
2023-02-22T21:17:53.940Z,99981.34
2023-02-22T21:20:55.589Z,99969.06
2023-02-22T21:24:01.537Z,99986.94
2023-02-22T21:27:03.750Z,99982.63
2023-02-22T21:30:06.912Z,99989.78
2023-02-22T21:33:10.664Z,99985.75
2023-02-22T21:36:13.627Z,99990.63
2023-02-22T21:39:19.082Z,99992.09
2023-02-22T21:42:20.897Z,99985.28
2023-02-22T21:45:22.663Z,99987.25
2023-02-22T21:48:26.654Z,99986.84
2023-02-22T21:51:33.122Z,99991.50
2023-02-22T21:54:34.972Z,99991.66
2023-02-22T21:57:37.611Z,99987.13
2023-02-22T22:00:42.718Z,99995.84
2023-02-22T22:03:48.676Z,99990.78
2023-02-22T22:06:52.764Z,99989.31
2023-02-22T22:09:56.545Z,99991.94
2023-02-22T22:12:59.437Z,99997.09
2023-02-22T22:16:03.989Z,99992.34
2023-02-22T22:19:08.311Z,99991.94
2023-02-22T22:22:10.703Z,99985.22
2023-02-22T22:25:12.828Z,99983.63
2023-02-22T22:28:14.518Z,99983.34
2023-02-22T22:31:17.578Z,99986.69
2023-02-22T22:34:24.386Z,99979.84
2023-02-22T22:37:27.947Z,99983.97
2023-02-22T22:40:29.789Z,99981.75
2023-02-22T22:43:31.935Z,99979.59
2023-02-22T22:46:33.859Z,99976.94
2023-02-22T22:49:40.300Z,99982.66
2023-02-22T22:52:42.049Z,99975.28
2023-02-22T22:55:44.143Z,99979.56
2023-02-22T22:58:48.205Z,99987.91
2023-02-22T23:01:52.566Z,99980.41
2023-02-22T23:04:55.863Z,99988.38
2023-02-22T23:07:57.780Z,99996.38
2023-02-22T23:11:10.251Z,99991.75
2023-02-22T23:14:13.663Z,99986.38
2023-02-22T23:17:42.394Z,99997.22
2023-02-22T23:24:47.366Z,99999.09
2023-02-22T23:28:14.686Z,99998.09
2023-02-22T23:31:18.009Z,100000.34
2023-02-22T23:34:23.222Z,100006.94
2023-02-22T23:37:26.577Z,100002.88
2023-02-22T23:40:31.968Z,100000.75
2023-02-22T23:43:34.035Z,100002.47
2023-02-22T23:46:36.481Z,100003.75
2023-02-22T23:49:38.841Z,100009.13
2023-02-22T23:52:43.787Z,100008.84
2023-02-22T23:59:27.206Z,100009.00
